Roseville, MI (48066)

4:06 AM EDT on May 23, 2015 (GMT -0400)
Don's Back Yard | | Change Station
CLOSE
Current Station
Personal Weather Station
Location: Fraser, MI
Elevation: 620 ft
Nearby Weather Stations
Active Advisory: Frost Advisory

Elev 620 ft 42.54 °N, 82.93 °W | Updated 8 minutes ago

Clear
Clear
35.4 °F
Feels Like 35 °F
N
0.0
Wind Variable Wind from NNE
Gusts 0.0 mph

Today
High -- | Low -- °F
--% Chance of Precip.
Yesterday
High -- | Low -- °F
Precip. -- in
6:02 AM 8:54 PM
Waxing Crescent, 28% visible
Pressure 30.35 in
Visibility 10.0 miles
Clouds Clear
Windchill 35 °F
Dew Point 29 °F
Humidity 77%
Rainfall 0.00 in
Snow Depth Not available.
UV 0 out of 12
Pollen 5.50 out of 12
Air Quality Not available.
Flu Activity Sporadic
METAR KDET 230753Z 00000KT 10SM CLR 06/M02 A3034 RMK AO2 SLP277 T00561017

More Conditions Fewer Conditions

Pressure 30.35 in
Visibility 10.0 miles
Clouds Clear
Windchill 35 °F
Dew Point 29 °F
Humidity 77%
Rainfall 0.00 in
Snow Depth Not available.
UV 0 out of 12
Pollen 5.50 out of 12
Air Quality Not available.
Flu Activity Sporadic
METAR KDET 230753Z 00000KT 10SM CLR 06/M02 A3034 RMK AO2 SLP277 T00561017

More Conditions Fewer Conditions

10-Day Weather Forecast

Almanac

Astronomy

May. 23, 2015 Rise Set
Actual Time
Civil Twilight
Nautical Twilight
Astronomical Twilight
Moon
Length of Visible Light
Length of Day
Tomorrow will be .
, % of the Moon is Illuminated

Today's Extremes

State Highs State Lows

Community

WunderPhotos

Upload Photos

1,823,401 photos uploaded!

WunderBlogs® & News

Nearby

Air Quality

  Air Quality AQ Index Pollutant
Not available.

Snow Depth

Station Depth Elevation

Earthquake Activity

City Distance Mag. Time & Date
Minimum magnitude displayed is 2.5.

Coastal Water Temperatures

Place Temperature

Stations

Nearby Weather Stations

Station Location Temp. Windchill Dew Point Humidity Wind Precip. Elev Updated Type
                   
Frost Advisory
Statement as of 10:12 PM EDT on May 22, 2015

... Frost advisory remains in effect from 2 am to 8 am EDT
Saturday...

Hazardous weather...

* clear skies... light winds and very dry air will lead to a cold
   night. Frost will develop overnight.

* Low temperatures will range from 30 to 36.

Impacts...

* sensitive vegetation may be damaged by frost.

Precautionary/preparedness actions...

* a frost advisory means that frost is possible. Sensitive
   outdoor plants may be killed if left uncovered.



SC